Latest Coastal Weather Observations for Centre Island

IDD60701

Issued at 3:31 pm CST Sunday 4 December 2016 (issued every 10 minutes, with the page automatically refreshed every 10 minutes)

About coastal observations | Map of coastal stations | Coastal observations for NT | Marine services | Other Formats
Station Details ID: 014703 Name: CENTRE ISLAND Lat: -15.74 Lon: 136.82 Height: 12.2 m
Data from the previous 72 hours. | See also: Recent months at Centre Island
Date/Time
CST
Temp
°C
Wind Pressure Rain since
9am
mm
Weather Cloud Vis
km
Sea
Height
m
Swell
Dir  Spd
kts
Gust
kts
hPa Trend Height
m
Period
s
Dir
04/03:30pm 33.4 NE 14 17 1008.2 - 0.0 - - - - - - -
04/03:00pm 33.8 NE 15 19 1008.3 - 0.0 - - - - - - -
04/02:30pm 34.0 NE 15 19 1008.7 - 0.0 - - - - - - -
04/02:00pm 34.1 NE 14 18 1009.0 - 0.0 - - - - - - -
04/01:30pm 34.6 NE 15 19 1009.3 - 0.0 - - - - - - -
04/01:00pm 34.4 NE 15 20 1009.6 - 0.0 - - - - - - -
04/12:30pm 34.9 NE 15 20 1010.0 - 0.0 - - - - - - -
04/12:00pm 34.6 ENE 8 16 1010.3 - 0.0 - - - - - - -
04/11:30am 33.0 E 5 7 1010.7 - 0.0 - - - - - - -
04/11:00am 32.1 E 5 6 1010.9 - 0.0 - - - - - - -
04/10:30am 32.4 ESE 5 7 1011.1 - 0.0 - - - - - - -
04/10:00am 31.5 SE 5 6 1011.3 - 0.0 - - - - - - -
04/09:30am 31.3 SE 5 7 1011.4 - 0.0 - - - - - - -
04/09:00am 30.8 SE 5 7 1011.4 - - - - - - - - -
04/08:30am 30.4 SSE 4 6 1011.2 - - - - - - - - -
04/08:00am 30.1 SSE 4 5 1011.1 - - - - - - - - -
04/07:30am 29.7 SW 4 5 1010.8 - - - - - - - - -
04/07:00am 28.8 WSW 1 4 1010.6 - - - - - - - - -
04/06:30am 27.7 WNW 4 4 1010.3 - - - - - - - - -
04/06:00am 27.5 WSW 5 8 1009.8 - - - - - - - - -
04/05:30am 27.2 WSW 6 8 1009.4 - - - - - - - - -
04/05:00am 27.3 W 7 9 1008.9 - - - - - - - - -
04/04:30am 27.0 WNW 6 7 1008.6 - - - - - - - - -
04/04:00am 27.4 WNW 6 8 1008.3 - - - - - - - - -
04/03:30am 27.8 W 6 8 1008.1 - - - - - - - - -
04/03:00am 28.2 W 7 8 1007.9 - - - - - - - - -
04/02:30am 28.5 W 8 9 1007.9 - - - - - - - - -
04/02:00am 27.1 WSW 4 5 1008.3 - - - - - - - - -
04/01:30am 27.3 W 4 5 1008.7 - - - - - - - - -
04/01:00am 27.4 NW 5 6 1009.2 - - - - - - - - -
04/12:30am 27.4 WNW 4 5 1009.7 - - - - - - - - -
04/12:00am 27.7 NW 4 5 1010.2 - - - - - - - - -
 
Date/Time
CST
Temp
°C
Wind Pressure Rain since
9am
mm
Weather Cloud Vis
km
Sea
Height
m
Swell
Dir  Spd
kts
Gust
kts
hPa Trend Height
m
Period
s
Dir
03/11:30pm 27.8 NW 5 6 1010.6 - - - - - - - - -
03/11:00pm 28.4 NNW 4 6 1011.0 - - - - - - - - -
03/10:30pm 28.8 N 5 8 1011.2 - - - - - - - - -
03/10:00pm 28.9 N 5 8 1010.9 - - - - - - - - -
03/09:00pm 29.6 N 7 10 1010.6 - 0.0 - - - - - - -
03/08:30pm 29.8 N 8 10 1010.2 - 0.0 - - - - - - -
03/08:00pm 29.8 N 8 11 1009.8 - 0.0 - - - - - - -
03/07:30pm 30.1 NNE 8 11 1009.5 - 0.0 - - - - - - -
03/07:00pm 30.1 NNE 10 13 1009.2 - 0.0 - - - - - - -
03/06:30pm 30.5 NNE 11 14 1009.1 - 0.0 - - - - - - -
03/06:00pm 31.3 NNE 11 14 1008.9 - 0.0 - - - - - - -
03/05:30pm 31.8 NE 12 15 1008.7 - 0.0 - - - - - - -
03/05:00pm 32.6 NE 12 15 1008.5 - 0.0 - - - - - - -
03/04:30pm 32.9 NNE 12 15 1008.4 - 0.0 - - - - - - -
03/04:00pm 33.4 NNE 12 16 1008.3 - 0.0 - - - - - - -
03/03:30pm 33.7 NNE 13 17 1008.4 - 0.0 - - - - - - -
03/03:00pm 34.4 NNE 12 16 1008.7 - 0.0 - - - - - - -
03/02:30pm 34.3 NNE 14 17 1009.0 - 0.0 - - - - - - -
03/02:00pm 34.7 NNE 13 17 1009.1 - 0.0 - - - - - - -
03/01:30pm 34.6 NNE 11 15 1009.5 - 0.0 - - - - - - -
03/01:00pm 34.5 NNE 11 15 1009.9 - 0.0 - - - - - - -
03/12:30pm 34.5 NNE 10 15 1010.3 - 0.0 - - - - - - -
03/12:00pm 34.5 NNE 10 14 1011.0 - 0.0 - - - - - - -
03/11:30am 34.8 NNE 9 13 1011.4 - 0.0 - - - - - - -
03/11:00am 33.1 NE 9 11 1011.9 - 0.0 - - - - - - -
03/10:30am 33.8 NE 8 10 1011.9 - 0.0 - - - - - - -
03/10:00am 33.4 NNE 7 10 1012.0 - 0.0 - - - - - - -
03/09:30am 33.5 NNE 6 10 1012.0 - 0.0 - - - - - - -
03/09:00am 32.4 NE 7 9 1012.0 - 0.0 - - - - - - -
03/08:30am 31.9 ENE 7 9 1012.0 - 0.0 - - - - - - -
03/08:00am 31.9 ENE 7 10 1011.9 - 0.0 - - - - - - -
03/07:30am 30.6 E 8 10 1011.6 - 0.0 - - - - - - -
03/07:00am 31.1 NE 6 11 1011.3 - 0.0 - - - - - - -
03/06:30am 29.5 NE 6 7 1010.8 - 0.0 - - - - - - -
03/06:00am 29.2 NE 6 7 1010.6 - 0.0 - - - - - - -
03/05:30am 29.0 NNE 5 7 1010.0 - 0.0 - - - - - - -
03/05:00am 28.5 N 3 5 1009.7 - 0.0 - - - - - - -
03/04:30am 28.3 NNW 3 4 1009.5 - 0.0 - - - - - - -
03/04:00am 28.4 WNW 2 3 1009.3 - 0.0 - - - - - - -
03/03:30am 28.7 N 3 3 1009.1 - 0.0 - - - - - - -
03/03:00am 28.9 NNW 3 4 1009.2 - 0.0 - - - - - - -
03/02:30am 29.1 N 4 6 1009.0 - 0.0 - - - - - - -
03/02:00am 29.2 N 4 6 1009.2 - 0.0 - - - - - - -
03/01:30am 29.3 N 5 7 1009.1 - 0.0 - - - - - - -
03/01:00am 29.4 N 5 7 1009.7 - 0.0 - - - - - - -
03/12:30am 29.4 N 6 7 1010.0 - 0.0 - - - - - - -
03/12:00am 29.4 N 5 7 1010.4 - 0.0 - - - - - - -
 
Date/Time
CST
Temp
°C
Wind Pressure Rain since
9am
mm
Weather Cloud Vis
km
Sea
Height
m
Swell
Dir  Spd
kts
Gust
kts
hPa Trend Height
m
Period
s
Dir
02/11:30pm 29.7 NNE 5 7 1010.5 - 0.0 - - - - - - -
02/11:00pm 29.9 NNE 8 11 1010.6 - 0.0 - - - - - - -
02/10:30pm 30.1 NE 8 10 1010.7 - 0.0 - - - - - - -
02/10:00pm 30.1 NE 9 12 1010.5 - 0.0 - - - - - - -
02/09:30pm 30.2 NE 10 13 1010.2 - 0.0 - - - - - - -
02/09:00pm 30.3 NE 9 11 1009.7 - 0.0 - - - - - - -
02/08:30pm 30.3 NE 10 13 1009.6 - 0.0 - - - - - - -
02/08:00pm 30.3 NE 10 13 1009.4 - 0.0 - - - - - - -
02/07:30pm 30.3 NE 11 13 1009.3 - 0.0 - - - - - - -
02/07:00pm 30.4 NE 11 14 1009.2 - 0.0 - - - - - - -
02/06:30pm 30.5 NNE 11 14 1008.8 - 0.0 - - - - - - -
02/06:00pm 31.1 NNE 11 14 1008.6 - 0.0 - - - - - - -
02/05:30pm 31.7 NNE 13 16 1008.2 - 0.0 - - - - - - -
02/05:00pm 32.1 NE 12 15 1008.1 - 0.0 - - - - - - -
02/04:30pm 32.9 NE 12 15 1008.0 - 0.0 - - - - - - -
02/04:00pm 33.1 NE 13 16 1008.2 - 0.0 - - - - - - -
02/03:30pm 33.5 NE 12 16 1008.3 - 0.0 - - - - - - -
02/03:00pm 34.0 NE 11 14 1008.4 - 0.0 - - - - - - -
02/02:30pm 34.3 NE 11 13 1008.8 - 0.0 - - - - - - -
02/02:00pm 34.8 NE 9 13 1009.2 - 0.0 - - - - - - -
02/01:30pm 35.7 N 8 12 1009.5 - 0.0 - - - - - - -
02/01:00pm 35.2 NNE 8 11 1010.0 - 0.0 - - - - - - -
02/12:30pm 33.4 N 9 13 1010.3 - 0.0 - - - - - - -
02/12:00pm 32.7 N 8 11 1010.6 - 0.0 - - - - - - -
02/11:30am 32.6 N 10 13 1010.7 - 0.0 - - - - - - -
02/11:00am 33.8 N 10 13 1010.8 - 0.0 - - - - - - -
02/10:30am 33.0 NNE 11 14 1011.1 - 0.0 - - - - - - -
02/10:00am 33.0 N 9 13 1011.1 - 0.0 - - - - - - -
02/09:30am 32.9 N 9 13 1011.1 - 0.0 - - - - - - -
02/09:00am 32.0 N 11 14 1011.2 - 0.0 - - - - - - -
02/08:30am 30.9 N 10 14 1010.8 - 0.0 - - - - - - -
02/08:00am 30.7 NNW 8 13 1010.5 - 0.0 - - - - - - -
02/07:30am 30.8 N 9 12 1010.2 - 0.0 - - - - - - -
02/07:00am 30.4 N 9 13 1009.8 - 0.0 - - - - - - -
02/06:30am 29.7 N 8 11 1009.6 - 0.0 - - - - - - -
02/06:00am 29.5 N 9 13 1009.4 - 0.0 - - - - - - -
02/05:30am 29.3 N 8 12 1009.0 - 0.0 - - - - - - -
02/05:00am 29.4 NNW 9 13 1008.7 - 0.0 - - - - - - -
02/04:30am 29.5 NNW 10 14 1008.4 - 0.0 - - - - - - -
02/04:00am 29.5 NNW 12 16 1008.1 - 0.0 - - - - - - -
02/03:30am 29.7 NNW 11 17 1008.0 - 0.0 - - - - - - -
02/03:00am 29.6 N 10 14 1007.9 - 0.0 - - - - - - -
02/02:30am 29.6 N 11 15 1007.8 - 0.0 - - - - - - -
02/02:00am 29.7 N 11 17 1007.7 - 0.0 - - - - - - -
02/01:30am 29.7 N 12 16 1007.6 - 0.0 - - - - - - -
02/01:00am 29.9 N 12 16 1007.8 - 0.0 - - - - - - -
02/12:30am 29.9 NNE 12 16 1008.3 - 0.0 - - - - - - -
02/12:00am 29.9 N 13 16 1008.5 - 0.0 - - - - - - -
 
Date/Time
CST
Temp
°C
Wind Pressure Rain since
9am
mm
Weather Cloud Vis
km
Sea
Height
m
Swell
Dir  Spd
kts
Gust
kts
hPa Trend Height
m
Period
s
Dir
01/11:30pm 30.1 NNE 15 19 1008.7 - 0.0 - - - - - - -
01/11:00pm 30.1 NNE 14 18 1008.7 - 0.0 - - - - - - -
01/10:30pm 30.1 NNE 14 18 1008.6 - 0.0 - - - - - - -
01/10:00pm 30.2 NNE 14 19 1008.4 - 0.0 - - - - - - -
01/09:30pm 30.2 NNE 14 19 1008.0 - 0.0 - - - - - - -
01/09:00pm 30.2 NNE 14 18 1007.9 - 0.0 - - - - - - -
01/08:30pm 30.2 NE 13 18 1007.4 - 0.0 - - - - - - -
01/08:00pm 30.1 NE 13 16 1007.0 - 0.0 - - - - - - -
01/07:30pm 30.1 NE 11 14 1006.7 - 0.0 - - - - - - -
01/07:00pm 30.1 NE 9 13 1006.5 - 0.0 - - - - - - -
01/06:30pm 30.4 NE 9 12 1006.6 - 0.0 - - - - - - -
01/06:00pm 31.1 NE 12 14 1006.3 - 0.0 - - - - - - -
01/05:30pm 31.8 NE 11 14 1005.8 - 0.0 - - - - - - -
01/05:00pm 32.4 NE 11 14 1005.8 - 0.0 - - - - - - -
01/04:30pm 32.2 NE 12 16 1005.8 - 0.0 - - - - - - -
01/04:00pm 33.2 NE 12 15 1006.1 - 0.0 - - - - - - -

Other Formats:

Comma delimited format used in spreadsheet applications
http://www.bom.gov.au/fwo/IDD60701/IDD60701.94248.axf

JavaScript Object Notation format (JSON) in row-major order
http://www.bom.gov.au/fwo/IDD60701/IDD60701.94248.json